San Ardo, CA

12:45 PM PDT on September 18, 2014 (GMT -0700)
Paso Robles Municipal | Change Station
CLOSE
Current Station
Airport
Location: Paso Robles,
Elevation: 837 ft
Nearby Weather Stations

Elev 837 ft 35.67 °N, 120.63 °W | Updated 3 hours ago

Mostly Cloudy
Mostly Cloudy
69 °F
Feels Like 69 °F
N
6
Wind Variable Wind from South

Today
High -- | Low -- °F
--% Chance of Precip.
Yesterday
High -- | Low -- °F
Precip. -- in
6:48 AM 7:06 PM
Waning Crescent, 25% visible
Pressure 29.88 in
Visibility 10.0 miles
Clouds Overcast 2100 ft
Dew Point 61 °F
Humidity 75%
Rainfall 0.00 in
Snow Depth 5 in , 0 in , 0 in
UV 1 out of 12
Pollen 6.00 out of 12
Air Quality Not available.
Flu Activity Not available.
METAR KPRB 181553Z AUTO 18005KT 10SM OVC021 21/16 A2990 RMK AO2 SLP118 T02060161

More Conditions Fewer Conditions

Pressure 29.88 in
Visibility 10.0 miles
Clouds Overcast 2100 ft
Dew Point 61 °F
Humidity 75%
Rainfall 0.00 in
Snow Depth 5 in , 0 in , 0 in
UV 1 out of 12
Pollen 6.00 out of 12
Air Quality Not available.
Flu Activity Not available.
METAR KPRB 181553Z AUTO 18005KT 10SM OVC021 21/16 A2990 RMK AO2 SLP118 T02060161

More Conditions Fewer Conditions

10-Day Weather Forecast

Almanac

Astronomy

Sep. 18, 2014 Rise Set
Actual Time 6:48 AM PDT 7:06 PM PDT
Civil Twilight 6:22 AM PDT 7:31 PM PDT
Nautical Twilight 5:52 AM PDT 8:01 PM PDT
Astronomical Twilight 5:22 AM PDT 8:32 PM PDT
Moon 1:52 AM PDT 3:54 PM PDT
Length of Visible Light 13h 08m
Length of Day
12h 17m
Tomorrow will be 2m 15s shorter.
Waning Crescent, 25% of the Moon is Illuminated
Today
Waning Crescent
Sep 24
New
Oct 1
First Quarter
Oct 8
Full
Oct 15
Last Quarter

Today's Extremes

State Highs State Lows

Community

WunderPhotos

Upload Photos

1,754,421 photos uploaded!

WunderBlogs® & News

By Dr. Jeff Masters
Director of Meteorology, Weather Underground
By Kari Strenfel
Meteorologist, Weather Underground
By Christopher C. Burt
Weather Historian, Weather Underground
September 18, 2014
September 18, 2014
September 18, 2014

Nearby

Snow Depth

Station Depth Elevation
CSS Lab 5 in 6900 ft
Summit Meadow 0 in 9122 ft
Tahoe City Cross 0 in 6750 ft
Monitor Pass 0 in 8350 ft
Leavitt Lake 0 in 9400 ft

Earthquake Activity

City Distance Mag. Time & Date
No recent earthquake activity has been reported nearby.
Minimum magnitude displayed is 2.5.

Coastal Water Temperatures

Place Temperature
No Stations Reporting

Nearby Weather Stations